Delta Lindsey — WDF5519 — position and weather

sailwx.info

Track history (hours):
 
Tides and Currents Weather Stations Pressure Air Temp Water Temp Dewpoint Dewpoint Depression Visibility Wind Speed Wind Dir Waves Ship Positions

Delta Lindsey

Owner: Baydelta Navigation, Inc., San Francisco, CA. More information available from US FCC via Universal Licensing System and Coast Guard Vessel Documentation Center.

Last reported at 2018-Apr-21 08:00 UTC. Time now 2018-Apr-21 08:05 UTC.
Position N 37°54' W 122°22'.

MMSI: 233246442.

Date/timePositionNaut miles runAvg speedWind from/ knotsBaromVisibWave heightAir tempDewpointWater temp
2018-Apr-21 08:00N 37°54' W 122°22'0 0.0
2018-Apr-21 07:30N 37°54' W 122°22'3 5.0
2018-Apr-21 07:00N 37°56' W 122°25'0 0.3
2018-Apr-21 06:30N 37°56' W 122°25'0 0.8
2018-Apr-21 06:00N 37°55' W 122°25'0 0.0
2018-Apr-21 05:28N 37°55' W 122°25'0 0.0
2018-Apr-21 04:58N 37°55' W 122°25'0 0.0
2018-Apr-21 04:25N 37°55' W 122°25'0 0.0
2018-Apr-21 03:58N 37°55' W 122°25'0 0.0
2018-Apr-21 03:28N 37°55' W 122°25'0 0.0
2018-Apr-21 02:58N 37°55' W 122°25'0 0.0
2018-Apr-21 02:28N 37°55' W 122°25'0 0.0
2018-Apr-21 02:00N 37°55' W 122°25'0 0.3
2018-Apr-21 01:30N 37°55' W 122°25'1 1.5
2018-Apr-21 01:00N 37°55' W 122°25'5 9.6
2018-Apr-21 00:30N 37°60' W 122°25'5 9.3
2018-Apr-21 00:00N 38°02' W 122°20'4 7.3
2018-Apr-20 23:30N 38°03' W 122°16'0 0.2
2018-Apr-20 22:59N 38°03' W 122°16'1 3.1
2018-Apr-20 22:30N 38°03' W 122°18'3 6.3
2018-Apr-20 22:00N 38°02' W 122°21'5 9.5
2018-Apr-20 21:30N 37°59' W 122°26'5 9.1
2018-Apr-20 21:00N 37°54' W 122°23'1 1.5
2018-Apr-20 20:30N 37°54' W 122°22'0 0.0
2018-Apr-20 20:00N 37°54' W 122°22'0 0.0
2018-Apr-20 19:30N 37°54' W 122°22'0 0.0
2018-Apr-20 19:00N 37°54' W 122°22'0 0.0
2018-Apr-20 18:30N 37°54' W 122°22'0 0.0
2018-Apr-20 18:00N 37°54' W 122°22'0 0.0
2018-Apr-20 17:30N 37°54' W 122°22'0 0.0
2018-Apr-20 17:00N 37°54' W 122°22'0 0.0
2018-Apr-20 16:30N 37°54' W 122°22'0 0.0
2018-Apr-20 16:00N 37°54' W 122°22'0 0.0
2018-Apr-20 15:30N 37°54' W 122°22'0 0.0
2018-Apr-20 15:00N 37°54' W 122°22'0 0.0
2018-Apr-20 14:30N 37°54' W 122°22'0 0.0
2018-Apr-20 14:00N 37°54' W 122°22'0 0.0
2018-Apr-20 13:30N 37°54' W 122°22'0 0.0
2018-Apr-20 13:00N 37°54' W 122°22'0 0.0
2018-Apr-20 12:30N 37°54' W 122°22'0 0.0
2018-Apr-20 12:00N 37°54' W 122°22'0 0.0
2018-Apr-20 11:30N 37°54' W 122°22'0 0.0
2018-Apr-20 11:00N 37°54' W 122°22'0 0.0
2018-Apr-20 10:30N 37°54' W 122°22'0 0.0
2018-Apr-20 10:00N 37°54' W 122°22'0 0.0
2018-Apr-20 09:30N 37°54' W 122°22'0 0.0
2018-Apr-20 09:00N 37°54' W 122°22'0 0.0
2018-Apr-20 08:30N 37°54' W 122°22'0 0.0
2018-Apr-20 08:00N 37°54' W 122°22'0 0.0
2018-Apr-20 07:30N 37°54' W 122°22'0 0.0
2018-Apr-20 07:00N 37°54' W 122°22'0 0.0
2018-Apr-20 06:30N 37°54' W 122°22'0 0.0
2018-Apr-20 06:00N 37°54' W 122°22'0 0.0
2018-Apr-20 05:30N 37°54' W 122°22'0 0.0
2018-Apr-20 05:00N 37°54' W 122°22'0 0.0
2018-Apr-20 04:30N 37°54' W 122°22'0 0.0
2018-Apr-20 04:00N 37°54' W 122°22'0 0.0
2018-Apr-20 03:30N 37°54' W 122°22'2 4.8
2018-Apr-20 03:00N 37°56' W 122°25'0 0.0
2018-Apr-20 02:30N 37°56' W 122°25'1 2.3
2018-Apr-20 02:00N 37°54' W 122°25'1 2.3
2018-Apr-20 01:30N 37°53' W 122°25'1 1.7
2018-Apr-20 01:01N 37°54' W 122°25'2 4.0
2018-Apr-20 00:29N 37°54' W 122°22'0 0.0
2018-Apr-19 23:59N 37°54' W 122°22'0 0.0
2018-Apr-19 23:26N 37°54' W 122°22'0 0.0
2018-Apr-19 22:59N 37°54' W 122°22'0 0.0
2018-Apr-19 22:29N 37°54' W 122°22'0 0.1
2018-Apr-19 22:00N 37°54' W 122°22'2 3.5
2018-Apr-19 21:30N 37°54' W 122°25'5 9.0
2018-Apr-19 21:00N 37°50' W 122°22'4 7.6
2018-Apr-19 20:30N 37°47' W 122°21'1 2.5
2018-Apr-19 20:00N 37°45' W 122°21'0 0.1
2018-Apr-19 19:27N 37°45' W 122°21'0 0.1
2018-Apr-19 19:00N 37°45' W 122°21'0 0.1
2018-Apr-19 18:30N 37°45' W 122°21'0 0.0
2018-Apr-19 18:00N 37°45' W 122°21'0 0.4
2018-Apr-19 17:30N 37°46' W 122°21'0 0.1
2018-Apr-19 16:57N 37°46' W 122°21'0 0.1
2018-Apr-19 16:30N 37°46' W 122°21'0 0.7
2018-Apr-19 16:00N 37°46' W 122°22'3 6.5
2018-Apr-19 15:30N 37°49' W 122°23'4 7.7
2018-Apr-19 15:00N 37°53' W 122°25'3 5.0
2018-Apr-19 14:30N 37°54' W 122°22'1 2.1
2018-Apr-19 14:00N 37°55' W 122°22'0 0.2
2018-Apr-19 13:30N 37°55' W 122°22'0 0.5
2018-Apr-19 13:00N 37°55' W 122°22'0 0.0
2018-Apr-19 12:30N 37°55' W 122°22'0 0.1
2018-Apr-19 12:00N 37°55' W 122°22'2 4.1
2018-Apr-19 11:30N 37°54' W 122°24'3 5.5
2018-Apr-19 11:00N 37°52' W 122°24'4 8.4
2018-Apr-19 10:30N 37°48' W 122°20'0 0.0
2018-Apr-19 10:00N 37°49' W 122°20'0 0.0
2018-Apr-19 09:30N 37°49' W 122°20'0 0.0
2018-Apr-19 09:00N 37°49' W 122°20'0 0.0
2018-Apr-19 08:30N 37°49' W 122°20'0 0.0
2018-Apr-19 08:00N 37°49' W 122°20'0 0.0
2018-Apr-19 07:30N 37°49' W 122°20'0 0.0
2018-Apr-19 07:00N 37°49' W 122°20'0 0.0
2018-Apr-19 06:30N 37°49' W 122°20'0 0.0
2018-Apr-19 06:00N 37°49' W 122°20'0 0.0
2018-Apr-19 05:30N 37°49' W 122°20'0 0.0
2018-Apr-19 05:00N 37°49' W 122°20'0 0.0
2018-Apr-19 04:30N 37°49' W 122°20'0 0.0
2018-Apr-19 04:00N 37°49' W 122°20'0 0.0
2018-Apr-19 03:30N 37°49' W 122°20'0 0.0
2018-Apr-19 03:00N 37°49' W 122°20'0 0.0
2018-Apr-19 02:30N 37°49' W 122°20'0 0.0
2018-Apr-19 02:00N 37°49' W 122°20'0 0.0
2018-Apr-19 01:30N 37°49' W 122°20'0 0.7
2018-Apr-19 01:00N 37°48' W 122°21'1 2.0
2018-Apr-19 00:30N 37°49' W 122°22'0 0.0
2018-Apr-19 00:00N 37°49' W 122°22'0 0.0
2018-Apr-18 23:30N 37°49' W 122°22'0 0.0
2018-Apr-18 23:00N 37°49' W 122°22'1 2.0
2018-Apr-18 22:30N 37°48' W 122°21'2 4.8
2018-Apr-18 22:00N 37°49' W 122°24'0 0.1
2018-Apr-18 21:31N 37°49' W 122°24'2 4.9
2018-Apr-18 21:01N 37°49' W 122°27'1 1.0
2018-Apr-18 20:30N 37°49' W 122°27'0 0.1
2018-Apr-18 20:00N 37°49' W 122°27'0 0.2
2018-Apr-18 19:30N 37°49' W 122°27'3 6.8
2018-Apr-18 19:00N 37°52' W 122°25'3 5.8
2018-Apr-18 18:31N 37°54' W 122°23'0 0.4
2018-Apr-18 17:59N 37°54' W 122°22'0 0.0
2018-Apr-18 17:29N 37°54' W 122°22'0 0.0
2018-Apr-18 17:00N 37°54' W 122°22'1 1.6
2018-Apr-18 16:30N 37°55' W 122°22'0 0.7
2018-Apr-18 16:00N 37°55' W 122°22'3 5.4
2018-Apr-18 15:30N 37°53' W 122°25'4 8.2
2018-Apr-18 15:00N 37°50' W 122°22'1 1.7
2018-Apr-18 14:29N 37°49' W 122°22'0 0.1
2018-Apr-18 13:59N 37°49' W 122°22'0 0.0
2018-Apr-18 13:29N 37°49' W 122°22'0 0.1
2018-Apr-18 12:59N 37°49' W 122°22'0 0.0
2018-Apr-18 12:29N 37°49' W 122°22'0 0.0
2018-Apr-18 11:59N 37°49' W 122°22'0 0.1
2018-Apr-18 11:29N 37°49' W 122°22'0 0.1
2018-Apr-18 10:59N 37°49' W 122°22'0 0.0
2018-Apr-18 10:29N 37°49' W 122°22'0 0.1
2018-Apr-18 09:59N 37°49' W 122°22'0 0.1
2018-Apr-18 09:26N 37°49' W 122°22'0 0.0
2018-Apr-18 08:56N 37°49' W 122°22'0 0.0
2018-Apr-18 08:29N 37°49' W 122°22'0 0.0
2018-Apr-18 07:59N 37°49' W 122°22'0 0.0
2018-Apr-18 07:31N 37°49' W 122°22'3 6.5
2018-Apr-18 07:00N 37°48' W 122°18'0 0.4
2018-Apr-18 06:30N 37°48' W 122°18'0 0.3
2018-Apr-18 06:00N 37°48' W 122°18'0 0.0
2018-Apr-18 05:31N 37°48' W 122°18'2 4.5
2018-Apr-18 05:00N 37°49' W 122°21'510.0
2018-Apr-18 04:30N 37°53' W 122°24'2 4.3
2018-Apr-18 04:00N 37°54' W 122°22'0 0.0
2018-Apr-18 03:28N 37°54' W 122°22'0 0.0
2018-Apr-18 02:58N 37°54' W 122°22'0 0.0
2018-Apr-18 02:28N 37°54' W 122°22'0 0.0
2018-Apr-18 01:58N 37°54' W 122°22'0 0.0
2018-Apr-18 01:28N 37°54' W 122°22'0 0.0
2018-Apr-18 00:58N 37°54' W 122°22'0 0.0
2018-Apr-18 00:28N 37°54' W 122°22'0 0.0
2018-Apr-17 23:58N 37°54' W 122°22'0 0.0
2018-Apr-17 23:25N 37°54' W 122°22'0 0.0
2018-Apr-17 22:58N 37°54' W 122°22'0 0.1
2018-Apr-17 22:30N 37°54' W 122°22'1 1.5
2018-Apr-17 21:59N 37°55' W 122°22'0 0.0
2018-Apr-17 21:29N 37°55' W 122°22'0 0.0
2018-Apr-17 20:59N 37°55' W 122°22'0 0.0
2018-Apr-17 20:29N 37°55' W 122°22'0 0.0
2018-Apr-17 19:59N 37°55' W 122°22'0 0.0
2018-Apr-17 19:26N 37°55' W 122°22'0 0.0
2018-Apr-17 18:56N 37°55' W 122°22'0 0.0
2018-Apr-17 18:26N 37°55' W 122°22'1 1.2
2018-Apr-17 18:00N 37°54' W 122°22'0 0.9
2018-Apr-17 17:30N 37°54' W 122°22'0 0.8
2018-Apr-17 17:00N 37°54' W 122°23'2 4.6
2018-Apr-17 16:30N 37°56' W 122°25'0 0.6
2018-Apr-17 16:00N 37°56' W 122°25'0 0.6
2018-Apr-17 15:31N 37°55' W 122°25'0 0.0
2018-Apr-17 14:56N 37°55' W 122°25'0 0.0
2018-Apr-17 14:29N 37°55' W 122°25'0 0.0
2018-Apr-17 13:56N 37°55' W 122°25'0 0.0
2018-Apr-17 13:26N 37°55' W 122°25'0 0.0
2018-Apr-17 12:56N 37°55' W 122°25'0 0.0
2018-Apr-17 12:29N 37°55' W 122°25'0 0.0
2018-Apr-17 11:56N 37°55' W 122°25'0 0.1
2018-Apr-17 11:29N 37°55' W 122°24'0 0.1
2018-Apr-17 10:59N 37°55' W 122°25'2 4.0
2018-Apr-17 10:30N 37°57' W 122°26'5 8.8
2018-Apr-17 10:00N 38°01' W 122°23'5 9.4
2018-Apr-17 09:30N 38°03' W 122°18'5 8.6
2018-Apr-17 08:58N 38°04' W 122°12'3 6.6
2018-Apr-17 08:27N 38°02' W 122°08'2 0.5
2018-Apr-17 04:57N 38°03' W 122°11'3 4.4
2018-Apr-17 04:12N 38°03' W 122°15'0 0.0
2018-Apr-17 03:16N 38°03' W 122°15'2 5.8
2018-Apr-17 02:54N 38°03' W 122°17'4 7.9
2018-Apr-17 02:22N 38°02' W 122°22'3 8.3
2018-Apr-17 02:00N 37°60' W 122°25'4 7.8
2018-Apr-17 01:30N 37°56' W 122°25'0 0.9
2018-Apr-17 01:00N 37°55' W 122°25'1 1.0
2018-Apr-17 00:30N 37°55' W 122°25'2 4.8
2018-Apr-17 00:00N 37°54' W 122°22'0 0.4
2018-Apr-16 23:30N 37°55' W 122°22'0 0.8
2018-Apr-16 23:00N 37°54' W 122°22'2 4.5
2018-Apr-16 22:30N 37°55' W 122°25'1 1.5
2018-Apr-16 22:00N 37°54' W 122°25'2 3.8
2018-Apr-16 21:29N 37°54' W 122°22'0 0.0
2018-Apr-16 20:59N 37°54' W 122°22'0 0.0
2018-Apr-16 20:29N 37°54' W 122°22'0 0.0
2018-Apr-16 19:59N 37°54' W 122°22'0 0.0
2018-Apr-16 19:29N 37°54' W 122°22'0 0.0
2018-Apr-16 18:59N 37°54' W 122°22'0 0.0
2018-Apr-16 18:29N 37°54' W 122°22'0 0.5
2018-Apr-16 18:00N 37°54' W 122°22'0 0.3
2018-Apr-16 17:30N 37°54' W 122°22'0 0.8
2018-Apr-16 17:00N 37°54' W 122°22'0 0.0
2018-Apr-16 16:27N 37°54' W 122°22'0 0.0
2018-Apr-16 16:00N 37°54' W 122°22'0 0.0
2018-Apr-16 15:27N 37°54' W 122°22'0 0.0
2018-Apr-16 15:00N 37°54' W 122°22'0 0.0
2018-Apr-16 14:30N 37°54' W 122°22'0 0.0
2018-Apr-16 14:01N 37°54' W 122°22'2 3.9
2018-Apr-16 13:31N 37°55' W 122°24'0 0.2
2018-Apr-16 12:50N 37°55' W 122°25'0 0.0
2018-Apr-16 12:29N 37°55' W 122°25'0 0.0
2018-Apr-16 11:56N 37°55' W 122°25'0 0.0
2018-Apr-16 11:29N 37°55' W 122°25'0 0.0
2018-Apr-16 10:59N 37°55' W 122°25'0 0.0
2018-Apr-16 10:29N 37°55' W 122°25'2 4.4
2018-Apr-16 10:00N 37°53' W 122°25'5 9.1
2018-Apr-16 09:30N 37°49' W 122°22'0 0.4
2018-Apr-16 09:00N 37°49' W 122°22'1 2.4
2018-Apr-16 08:30N 37°50' W 122°22'4 7.0
2018-Apr-16 08:00N 37°53' W 122°25'2 4.8
2018-Apr-16 07:30N 37°54' W 122°22'0 0.6
2018-Apr-16 07:00N 37°54' W 122°22'0 0.1
2018-Apr-16 06:30N 37°54' W 122°22'0 0.0
2018-Apr-16 06:00N 37°55' W 122°22'0 0.0
2018-Apr-16 05:30N 37°55' W 122°22'0 0.0
2018-Apr-16 05:00N 37°55' W 122°22'0 0.0
2018-Apr-16 04:30N 37°54' W 122°22'0 0.0
2018-Apr-16 04:00N 37°54' W 122°22'0 0.1
2018-Apr-16 03:30N 37°54' W 122°22'0 0.9
2018-Apr-16 03:00N 37°54' W 122°22'0 0.0
2018-Apr-16 02:30N 37°54' W 122°22'0 0.0
2018-Apr-16 01:58N 37°54' W 122°22'0 0.0
2018-Apr-16 01:28N 37°54' W 122°22'0 0.1
2018-Apr-16 00:55N 37°54' W 122°22'0 0.1
2018-Apr-16 00:22N 37°54' W 122°22'0 0.0
2018-Apr-15 23:55N 37°54' W 122°22'0 0.0
2018-Apr-15 23:28N 37°54' W 122°22'0 0.0
2018-Apr-15 22:58N 37°54' W 122°22'0 0.0
2018-Apr-15 22:28N 37°54' W 122°22'0 0.0
2018-Apr-15 21:58N 37°54' W 122°22'0 0.0
2018-Apr-15 21:28N 37°54' W 122°22'0 0.0
2018-Apr-15 20:58N 37°54' W 122°22'0 0.0
2018-Apr-15 20:28N 37°54' W 122°22'0 0.0
2018-Apr-15 19:58N 37°54' W 122°22'0 0.0
2018-Apr-15 19:28N 37°54' W 122°22'0 0.0
2018-Apr-15 18:55N 37°54' W 122°22'0 0.0
2018-Apr-15 18:28N 37°54' W 122°22'0 0.0
2018-Apr-15 17:58N 37°54' W 122°22'0 0.0
2018-Apr-15 17:25N 37°54' W 122°22'0 0.0
2018-Apr-15 16:58N 37°54' W 122°22'0 0.0
2018-Apr-15 16:31N 37°54' W 122°22'0 0.2
2018-Apr-15 16:00N 37°54' W 122°22'1 2.1
2018-Apr-15 15:31N 37°55' W 122°22'2 3.5
2018-Apr-15 15:00N 37°55' W 122°24'1 1.3
2018-Apr-15 14:28N 37°55' W 122°25'0 0.0
2018-Apr-15 13:58N 37°55' W 122°25'0 0.0
2018-Apr-15 13:28N 37°55' W 122°25'0 0.0
2018-Apr-15 12:58N 37°55' W 122°25'0 0.0
2018-Apr-15 12:28N 37°55' W 122°25'0 0.0
2018-Apr-15 11:58N 37°55' W 122°25'0 0.0
2018-Apr-15 11:28N 37°55' W 122°25'0 0.0
2018-Apr-15 10:58N 37°55' W 122°25'0 0.0
2018-Apr-15 10:28N 37°55' W 122°25'0 0.0
2018-Apr-15 09:58N 37°55' W 122°25'0 0.0
2018-Apr-15 09:25N 37°55' W 122°25'0 0.0
2018-Apr-15 08:58N 37°55' W 122°25'0 0.0
2018-Apr-15 08:25N 37°55' W 122°25'0 0.0
2018-Apr-15 07:58N 37°55' W 122°25'0 0.0
2018-Apr-15 07:28N 37°55' W 122°25'0 0.0
2018-Apr-15 06:59N 37°55' W 122°25'0 0.5
2018-Apr-15 06:30N 37°55' W 122°25'0 0.4
2018-Apr-15 06:00N 37°55' W 122°25'0 0.2
2018-Apr-15 05:30N 37°55' W 122°25'0 0.0
2018-Apr-15 05:00N 37°55' W 122°25'0 0.0
2018-Apr-15 04:30N 37°55' W 122°25'0 0.0
2018-Apr-15 03:57N 37°55' W 122°25'0 0.0
2018-Apr-15 03:30N 37°55' W 122°25'0 0.0
2018-Apr-15 02:51N 37°55' W 122°25'0 0.0
2018-Apr-15 02:30N 37°55' W 122°25'0 0.0
2018-Apr-15 02:00N 37°55' W 122°25'0 0.9
2018-Apr-15 01:30N 37°56' W 122°25'0 0.0
2018-Apr-15 01:00N 37°56' W 122°25'0 0.8
2018-Apr-15 00:30N 37°55' W 122°25'3 5.6
2018-Apr-15 00:00N 37°53' W 122°25'3 5.5
2018-Apr-14 23:30N 37°55' W 122°25'0 0.0
2018-Apr-14 22:58N 37°55' W 122°25'0 0.0
2018-Apr-14 22:28N 37°55' W 122°25'0 0.0
2018-Apr-14 21:58N 37°55' W 122°25'0 0.0
2018-Apr-14 21:28N 37°55' W 122°25'2 4.2
2018-Apr-14 20:59N 37°54' W 122°22'0 0.0
2018-Apr-14 20:29N 37°54' W 122°22'0 0.0
2018-Apr-14 19:59N 37°54' W 122°22'0 0.0
2018-Apr-14 19:29N 37°54' W 122°22'0 0.0
2018-Apr-14 18:59N 37°54' W 122°22'0 0.0
2018-Apr-14 18:29N 37°54' W 122°22'0 0.0
2018-Apr-14 18:00N 37°54' W 122°22'4 7.5
2018-Apr-14 17:30N 37°57' W 122°26'510.0
2018-Apr-14 17:00N 38°01' W 122°23'611.6
2018-Apr-14 16:30N 38°04' W 122°16'2 4.8
2018-Apr-14 16:00N 38°03' W 122°13'1 1.9
2018-Apr-14 15:30N 38°04' W 122°14'0 0.1
2018-Apr-14 09:55N 38°03' W 122°15'0 0.0
2018-Apr-14 09:13N 38°03' W 122°15'0 0.2
2018-Apr-14 08:55N 38°03' W 122°15'3 6.5
2018-Apr-14 08:29N 38°03' W 122°11'3 5.7
2018-Apr-14 07:58N 38°02' W 122°08'0 0.3
2018-Apr-14 07:27N 38°02' W 122°08'2 0.6
2018-Apr-14 04:16N 38°02' W 122°10'2 9.4
2018-Apr-14 04:00N 38°04' W 122°13'5 9.1
2018-Apr-14 03:30N 38°03' W 122°19'5 9.0
2018-Apr-14 02:58N 38°00' W 122°24'4 9.6
2018-Apr-14 02:30N 37°56' W 122°26'1 2.4
2018-Apr-14 01:59N 37°55' W 122°25'0 0.0
2018-Apr-14 01:29N 37°55' W 122°25'0 0.0
2018-Apr-14 00:59N 37°55' W 122°25'0 0.0
2018-Apr-14 00:23N 37°55' W 122°25'0 0.0
2018-Apr-13 23:56N 37°55' W 122°25'0 0.0
2018-Apr-13 23:29N 37°55' W 122°25'0 0.0
2018-Apr-13 22:59N 37°55' W 122°25'0 0.0
2018-Apr-13 22:30N 37°55' W 122°25'2 4.0
2018-Apr-13 22:00N 37°54' W 122°22'0 0.0
2018-Apr-13 21:30N 37°54' W 122°22'0 0.0
2018-Apr-13 21:00N 37°54' W 122°22'0 0.0
2018-Apr-13 20:30N 37°54' W 122°22'1 1.6
2018-Apr-13 20:00N 37°55' W 122°22'1 2.3
2018-Apr-13 19:30N 37°54' W 122°23'2 3.7
2018-Apr-13 19:00N 37°55' W 122°25'2 3.4
2018-Apr-13 18:31N 37°54' W 122°23'1 1.2
2018-Apr-13 18:00N 37°54' W 122°22'0 0.0
2018-Apr-13 17:27N 37°54' W 122°22'0 0.0
2018-Apr-13 17:00N 37°54' W 122°22'0 0.0
2018-Apr-13 16:30N 37°54' W 122°22'0 0.0
2018-Apr-13 16:00N 37°54' W 122°22'0 0.0
2018-Apr-13 15:30N 37°54' W 122°22'0 0.0
2018-Apr-13 15:00N 37°54' W 122°22'3 5.4
2018-Apr-13 14:30N 37°55' W 122°25'1 1.2
2018-Apr-13 14:00N 37°56' W 122°25'0 0.1
2018-Apr-13 13:30N 37°56' W 122°25'3 5.1
2018-Apr-13 12:58N 37°58' W 122°26'511.4
2018-Apr-13 12:30N 38°02' W 122°21'612.5
2018-Apr-13 12:01N 38°04' W 122°14'5 1.3
2018-Apr-13 08:02N 38°02' W 122°08'0 1.2
2018-Apr-13 07:59N 38°02' W 122°08'3 2.7
2018-Apr-13 07:03N 38°03' W 122°11'211.7
2018-Apr-13 06:55N 38°04' W 122°12'4 9.4
2018-Apr-13 06:30N 38°03' W 122°17'6 8.1
2018-Apr-13 05:47N 38°01' W 122°24'312.6
2018-Apr-13 05:30N 37°58' W 122°26'4 7.9
2018-Apr-13 04:58N 37°54' W 122°22'0 0.4
2018-Apr-13 04:30N 37°54' W 122°22'1 1.8
2018-Apr-13 04:00N 37°55' W 122°22'1 1.6
2018-Apr-13 03:30N 37°54' W 122°22'0 0.0
2018-Apr-13 02:57N 37°54' W 122°22'0 0.0
2018-Apr-13 02:30N 37°54' W 122°22'0 0.0
2018-Apr-13 01:57N 37°54' W 122°22'0 0.0
2018-Apr-13 01:30N 37°54' W 122°22'2 3.8
2018-Apr-13 00:58N 37°55' W 122°25'0 0.0
2018-Apr-13 00:28N 37°55' W 122°25'0 0.0
2018-Apr-12 23:55N 37°55' W 122°25'0 0.0
2018-Apr-12 23:28N 37°55' W 122°25'0 0.1
2018-Apr-12 22:58N 37°55' W 122°24'0 0.1
2018-Apr-12 22:25N 37°55' W 122°25'0 0.0
2018-Apr-12 21:52N 37°55' W 122°25'0 0.0
2018-Apr-12 21:25N 37°55' W 122°25'0 0.0
2018-Apr-12 20:58N 37°55' W 122°25'0 0.0
2018-Apr-12 20:28N 37°55' W 122°25'0 0.0
2018-Apr-12 19:55N 37°55' W 122°25'0 0.0
2018-Apr-12 19:19N 37°55' W 122°25'0 0.6
2018-Apr-12 19:00N 37°55' W 122°25'0 0.6
2018-Apr-12 18:30N 37°55' W 122°25'0 0.2
2018-Apr-12 17:48N 37°55' W 122°25'0 0.0
2018-Apr-12 17:21N 37°55' W 122°25'0 0.3
2018-Apr-12 17:00N 37°55' W 122°25'0 0.9
2018-Apr-12 16:30N 37°56' W 122°25'2 3.1
2018-Apr-12 16:00N 37°54' W 122°25'1 2.5
2018-Apr-12 15:30N 37°55' W 122°25'0 0.1
2018-Apr-12 15:00N 37°55' W 122°25'2 3.6
2018-Apr-12 14:30N 37°53' W 122°25'4 8.2
2018-Apr-12 14:00N 37°50' W 122°24'4 7.1
2018-Apr-12 13:30N 37°46' W 122°22'3 5.8
2018-Apr-12 13:00N 37°44' W 122°21'0 0.2
2018-Apr-12 12:30N 37°44' W 122°21'2 4.9
2018-Apr-12 12:00N 37°46' W 122°21'3 6.5
2018-Apr-12 11:30N 37°49' W 122°22'3 6.0
2018-Apr-12 11:00N 37°52' W 122°24'510.8
2018-Apr-12 10:30N 37°57' W 122°26'510.2
2018-Apr-12 10:00N 38°01' W 122°23'510.0
2018-Apr-12 09:30N 38°03' W 122°17'5 9.7
2018-Apr-12 09:00N 38°03' W 122°11'2 0.8
2018-Apr-12 06:03N 38°04' W 122°14'110.9
2018-Apr-12 05:56N 38°04' W 122°15'1 1.3
2018-Apr-12 05:30N 38°04' W 122°15'0 0.1
2018-Apr-12 04:58N 38°03' W 122°15'0 0.0
2018-Apr-12 04:30N 38°03' W 122°15'0 0.0
2018-Apr-12 04:00N 38°03' W 122°15'0 0.0
2018-Apr-12 03:30N 38°03' W 122°15'2 0.6
2018-Apr-12 00:27N 38°04' W 122°17'6 8.0
2018-Apr-11 23:44N 38°01' W 122°23'2 7.9
2018-Apr-11 23:27N 37°59' W 122°25'3 7.8
2018-Apr-11 23:00N 37°56' W 122°27'4 7.4
2018-Apr-11 22:30N 37°53' W 122°25'4 8.7
2018-Apr-11 22:00N 37°49' W 122°23'4 8.5
2018-Apr-11 21:30N 37°45' W 122°20'0 0.4
2018-Apr-11 21:00N 37°45' W 122°20'0 0.3
2018-Apr-11 20:30N 37°45' W 122°20'3 6.8
2018-Apr-11 20:00N 37°48' W 122°21'1 1.9
2018-Apr-11 19:27N 37°49' W 122°22'0 0.0
2018-Apr-11 19:00N 37°49' W 122°22'0 0.0
2018-Apr-11 18:27N 37°49' W 122°22'0 0.0
2018-Apr-11 17:57N 37°49' W 122°22'0 0.0
2018-Apr-11 17:27N 37°49' W 122°22'0 0.0
2018-Apr-11 17:00N 37°49' W 122°22'0 0.1
2018-Apr-11 16:30N 37°49' W 122°22'0 0.1
2018-Apr-11 15:57N 37°49' W 122°22'0 0.0
2018-Apr-11 15:27N 37°49' W 122°22'0 0.0
2018-Apr-11 15:00N 37°49' W 122°22'0 0.1
2018-Apr-11 14:30N 37°49' W 122°22'0 0.1
2018-Apr-11 14:00N 37°49' W 122°22'0 0.0
2018-Apr-11 13:30N 37°49' W 122°22'0 0.0
2018-Apr-11 13:00N 37°49' W 122°22'0 0.0
2018-Apr-11 12:30N 37°49' W 122°22'0 0.0
2018-Apr-11 12:00N 37°49' W 122°22'0 0.0
2018-Apr-11 11:30N 37°49' W 122°22'0 0.1
2018-Apr-11 11:00N 37°49' W 122°22'0 0.2
2018-Apr-11 10:30N 37°49' W 122°22'2 4.1
2018-Apr-11 10:00N 37°51' W 122°23'4 7.7
2018-Apr-11 09:30N 37°54' W 122°25'2 4.8
2018-Apr-11 09:00N 37°55' W 122°22'0 0.7
2018-Apr-11 08:29N 37°55' W 122°22'  
Track history (hours):
 
Tides and Currents Weather Stations Pressure Air Temp Water Temp Dewpoint Dewpoint Depression Visibility Wind Speed Wind Dir Waves Ship Positions

Delta Lindsey

Owner: Baydelta Navigation, Inc., San Francisco, CA. More information available from US FCC via Universal Licensing System and Coast Guard Vessel Documentation Center.

Last reported at 2018-Apr-21 08:00 UTC. Time now 2018-Apr-21 08:05 UTC.
Position N 37°54' W 122°22'.

MMSI: 233246442.

Date/timePositionNaut miles runAvg speedWind from/ knotsBaromVisibWave heightAir tempDewpointWater temp
2018-Apr-21 08:00N 37°54' W 122°22'0 0.0
2018-Apr-21 07:30N 37°54' W 122°22'3 5.0
2018-Apr-21 07:00N 37°56' W 122°25'0 0.3
2018-Apr-21 06:30N 37°56' W 122°25'0 0.8
2018-Apr-21 06:00N 37°55' W 122°25'0 0.0
2018-Apr-21 05:28N 37°55' W 122°25'0 0.0
2018-Apr-21 04:58N 37°55' W 122°25'0 0.0
2018-Apr-21 04:25N 37°55' W 122°25'0 0.0
2018-Apr-21 03:58N 37°55' W 122°25'0 0.0
2018-Apr-21 03:28N 37°55' W 122°25'0 0.0
2018-Apr-21 02:58N 37°55' W 122°25'0 0.0
2018-Apr-21 02:28N 37°55' W 122°25'0 0.0
2018-Apr-21 02:00N 37°55' W 122°25'0 0.3
2018-Apr-21 01:30N 37°55' W 122°25'1 1.5
2018-Apr-21 01:00N 37°55' W 122°25'5 9.6
2018-Apr-21 00:30N 37°60' W 122°25'5 9.3
2018-Apr-21 00:00N 38°02' W 122°20'4 7.3
2018-Apr-20 23:30N 38°03' W 122°16'0 0.2
2018-Apr-20 22:59N 38°03' W 122°16'1 3.1
2018-Apr-20 22:30N 38°03' W 122°18'3 6.3
2018-Apr-20 22:00N 38°02' W 122°21'5 9.5
2018-Apr-20 21:30N 37°59' W 122°26'5 9.1
2018-Apr-20 21:00N 37°54' W 122°23'1 1.5
2018-Apr-20 20:30N 37°54' W 122°22'0 0.0
2018-Apr-20 20:00N 37°54' W 122°22'0 0.0
2018-Apr-20 19:30N 37°54' W 122°22'0 0.0
2018-Apr-20 19:00N 37°54' W 122°22'0 0.0
2018-Apr-20 18:30N 37°54' W 122°22'0 0.0
2018-Apr-20 18:00N 37°54' W 122°22'0 0.0
2018-Apr-20 17:30N 37°54' W 122°22'0 0.0
2018-Apr-20 17:00N 37°54' W 122°22'0 0.0
2018-Apr-20 16:30N 37°54' W 122°22'0 0.0
2018-Apr-20 16:00N 37°54' W 122°22'0 0.0
2018-Apr-20 15:30N 37°54' W 122°22'0 0.0
2018-Apr-20 15:00N 37°54' W 122°22'0 0.0
2018-Apr-20 14:30N 37°54' W 122°22'0 0.0
2018-Apr-20 14:00N 37°54' W 122°22'0 0.0
2018-Apr-20 13:30N 37°54' W 122°22'0 0.0
2018-Apr-20 13:00N 37°54' W 122°22'0 0.0
2018-Apr-20 12:30N 37°54' W 122°22'0 0.0
2018-Apr-20 12:00N 37°54' W 122°22'0 0.0
2018-Apr-20 11:30N 37°54' W 122°22'0 0.0
2018-Apr-20 11:00N 37°54' W 122°22'0 0.0
2018-Apr-20 10:30N 37°54' W 122°22'0 0.0
2018-Apr-20 10:00N 37°54' W 122°22'0 0.0
2018-Apr-20 09:30N 37°54' W 122°22'0 0.0
2018-Apr-20 09:00N 37°54' W 122°22'0 0.0
2018-Apr-20 08:30N 37°54' W 122°22'0 0.0
2018-Apr-20 08:00N 37°54' W 122°22'0 0.0
2018-Apr-20 07:30N 37°54' W 122°22'0 0.0
2018-Apr-20 07:00N 37°54' W 122°22'0 0.0
2018-Apr-20 06:30N 37°54' W 122°22'0 0.0
2018-Apr-20 06:00N 37°54' W 122°22'0 0.0
2018-Apr-20 05:30N 37°54' W 122°22'0 0.0
2018-Apr-20 05:00N 37°54' W 122°22'0 0.0
2018-Apr-20 04:30N 37°54' W 122°22'0 0.0
2018-Apr-20 04:00N 37°54' W 122°22'0 0.0
2018-Apr-20 03:30N 37°54' W 122°22'2 4.8
2018-Apr-20 03:00N 37°56' W 122°25'0 0.0
2018-Apr-20 02:30N 37°56' W 122°25'1 2.3
2018-Apr-20 02:00N 37°54' W 122°25'1 2.3
2018-Apr-20 01:30N 37°53' W 122°25'1 1.7
2018-Apr-20 01:01N 37°54' W 122°25'2 4.0
2018-Apr-20 00:29N 37°54' W 122°22'0 0.0
2018-Apr-19 23:59N 37°54' W 122°22'0 0.0
2018-Apr-19 23:26N 37°54' W 122°22'0 0.0
2018-Apr-19 22:59N 37°54' W 122°22'0 0.0
2018-Apr-19 22:29N 37°54' W 122°22'0 0.1
2018-Apr-19 22:00N 37°54' W 122°22'2 3.5
2018-Apr-19 21:30N 37°54' W 122°25'5 9.0
2018-Apr-19 21:00N 37°50' W 122°22'4 7.6
2018-Apr-19 20:30N 37°47' W 122°21'1 2.5
2018-Apr-19 20:00N 37°45' W 122°21'0 0.1
2018-Apr-19 19:27N 37°45' W 122°21'0 0.1
2018-Apr-19 19:00N 37°45' W 122°21'0 0.1
2018-Apr-19 18:30N 37°45' W 122°21'0 0.0
2018-Apr-19 18:00N 37°45' W 122°21'0 0.4
2018-Apr-19 17:30N 37°46' W 122°21'0 0.1
2018-Apr-19 16:57N 37°46' W 122°21'0 0.1
2018-Apr-19 16:30N 37°46' W 122°21'0 0.7
2018-Apr-19 16:00N 37°46' W 122°22'3 6.5
2018-Apr-19 15:30N 37°49' W 122°23'4 7.7
2018-Apr-19 15:00N 37°53' W 122°25'3 5.0
2018-Apr-19 14:30N 37°54' W 122°22'1 2.1
2018-Apr-19 14:00N 37°55' W 122°22'0 0.2
2018-Apr-19 13:30N 37°55' W 122°22'0 0.5
2018-Apr-19 13:00N 37°55' W 122°22'0 0.0
2018-Apr-19 12:30N 37°55' W 122°22'0 0.1
2018-Apr-19 12:00N 37°55' W 122°22'2 4.1
2018-Apr-19 11:30N 37°54' W 122°24'3 5.5
2018-Apr-19 11:00N 37°52' W 122°24'4 8.4
2018-Apr-19 10:30N 37°48' W 122°20'0 0.0
2018-Apr-19 10:00N 37°49' W 122°20'0 0.0
2018-Apr-19 09:30N 37°49' W 122°20'0 0.0
2018-Apr-19 09:00N 37°49' W 122°20'0 0.0
2018-Apr-19 08:30N 37°49' W 122°20'0 0.0
2018-Apr-19 08:00N 37°49' W 122°20'0 0.0
2018-Apr-19 07:30N 37°49' W 122°20'0 0.0
2018-Apr-19 07:00N 37°49' W 122°20'0 0.0
2018-Apr-19 06:30N 37°49' W 122°20'0 0.0
2018-Apr-19 06:00N 37°49' W 122°20'0 0.0
2018-Apr-19 05:30N 37°49' W 122°20'0 0.0
2018-Apr-19 05:00N 37°49' W 122°20'0 0.0
2018-Apr-19 04:30N 37°49' W 122°20'0 0.0
2018-Apr-19 04:00N 37°49' W 122°20'0 0.0
2018-Apr-19 03:30N 37°49' W 122°20'0 0.0
2018-Apr-19 03:00N 37°49' W 122°20'0 0.0
2018-Apr-19 02:30N 37°49' W 122°20'0 0.0
2018-Apr-19 02:00N 37°49' W 122°20'0 0.0
2018-Apr-19 01:30N 37°49' W 122°20'0 0.7
2018-Apr-19 01:00N 37°48' W 122°21'1 2.0
2018-Apr-19 00:30N 37°49' W 122°22'0 0.0
2018-Apr-19 00:00N 37°49' W 122°22'0 0.0
2018-Apr-18 23:30N 37°49' W 122°22'0 0.0
2018-Apr-18 23:00N 37°49' W 122°22'1 2.0
2018-Apr-18 22:30N 37°48' W 122°21'2 4.8
2018-Apr-18 22:00N 37°49' W 122°24'0 0.1
2018-Apr-18 21:31N 37°49' W 122°24'2 4.9
2018-Apr-18 21:01N 37°49' W 122°27'1 1.0
2018-Apr-18 20:30N 37°49' W 122°27'0 0.1
2018-Apr-18 20:00N 37°49' W 122°27'0 0.2
2018-Apr-18 19:30N 37°49' W 122°27'3 6.8
2018-Apr-18 19:00N 37°52' W 122°25'3 5.8
2018-Apr-18 18:31N 37°54' W 122°23'0 0.4
2018-Apr-18 17:59N 37°54' W 122°22'0 0.0
2018-Apr-18 17:29N 37°54' W 122°22'0 0.0
2018-Apr-18 17:00N 37°54' W 122°22'1 1.6
2018-Apr-18 16:30N 37°55' W 122°22'0 0.7
2018-Apr-18 16:00N 37°55' W 122°22'3 5.4
2018-Apr-18 15:30N 37°53' W 122°25'4 8.2
2018-Apr-18 15:00N 37°50' W 122°22'1 1.7
2018-Apr-18 14:29N 37°49' W 122°22'0 0.1
2018-Apr-18 13:59N 37°49' W 122°22'0 0.0
2018-Apr-18 13:29N 37°49' W 122°22'0 0.1
2018-Apr-18 12:59N 37°49' W 122°22'0 0.0
2018-Apr-18 12:29N 37°49' W 122°22'0 0.0
2018-Apr-18 11:59N 37°49' W 122°22'0 0.1
2018-Apr-18 11:29N 37°49' W 122°22'0 0.1
2018-Apr-18 10:59N 37°49' W 122°22'0 0.0
2018-Apr-18 10:29N 37°49' W 122°22'0 0.1
2018-Apr-18 09:59N 37°49' W 122°22'0 0.1
2018-Apr-18 09:26N 37°49' W 122°22'0 0.0
2018-Apr-18 08:56N 37°49' W 122°22'0 0.0
2018-Apr-18 08:29N 37°49' W 122°22'0 0.0
2018-Apr-18 07:59N 37°49' W 122°22'0 0.0
2018-Apr-18 07:31N 37°49' W 122°22'3 6.5
2018-Apr-18 07:00N 37°48' W 122°18'0 0.4
2018-Apr-18 06:30N 37°48' W 122°18'0 0.3
2018-Apr-18 06:00N 37°48' W 122°18'0 0.0
2018-Apr-18 05:31N 37°48' W 122°18'2 4.5
2018-Apr-18 05:00N 37°49' W 122°21'510.0
2018-Apr-18 04:30N 37°53' W 122°24'2 4.3
2018-Apr-18 04:00N 37°54' W 122°22'0 0.0
2018-Apr-18 03:28N 37°54' W 122°22'0 0.0
2018-Apr-18 02:58N 37°54' W 122°22'0 0.0
2018-Apr-18 02:28N 37°54' W 122°22'0 0.0
2018-Apr-18 01:58N 37°54' W 122°22'0 0.0
2018-Apr-18 01:28N 37°54' W 122°22'0 0.0
2018-Apr-18 00:58N 37°54' W 122°22'0 0.0
2018-Apr-18 00:28N 37°54' W 122°22'0 0.0
2018-Apr-17 23:58N 37°54' W 122°22'0 0.0
2018-Apr-17 23:25N 37°54' W 122°22'0 0.0
2018-Apr-17 22:58N 37°54' W 122°22'0 0.1
2018-Apr-17 22:30N 37°54' W 122°22'1 1.5
2018-Apr-17 21:59N 37°55' W 122°22'0 0.0
2018-Apr-17 21:29N 37°55' W 122°22'0 0.0
2018-Apr-17 20:59N 37°55' W 122°22'0 0.0
2018-Apr-17 20:29N 37°55' W 122°22'0 0.0
2018-Apr-17 19:59N 37°55' W 122°22'0 0.0
2018-Apr-17 19:26N 37°55' W 122°22'0 0.0
2018-Apr-17 18:56N 37°55' W 122°22'0 0.0
2018-Apr-17 18:26N 37°55' W 122°22'1 1.2
2018-Apr-17 18:00N 37°54' W 122°22'0 0.9
2018-Apr-17 17:30N 37°54' W 122°22'0 0.8
2018-Apr-17 17:00N 37°54' W 122°23'2 4.6
2018-Apr-17 16:30N 37°56' W 122°25'0 0.6
2018-Apr-17 16:00N 37°56' W 122°25'0 0.6
2018-Apr-17 15:31N 37°55' W 122°25'0 0.0
2018-Apr-17 14:56N 37°55' W 122°25'0 0.0
2018-Apr-17 14:29N 37°55' W 122°25'0 0.0
2018-Apr-17 13:56N 37°55' W 122°25'0 0.0
2018-Apr-17 13:26N 37°55' W 122°25'0 0.0
2018-Apr-17 12:56N 37°55' W 122°25'0 0.0
2018-Apr-17 12:29N 37°55' W 122°25'0 0.0
2018-Apr-17 11:56N 37°55' W 122°25'0 0.1
2018-Apr-17 11:29N 37°55' W 122°24'0 0.1
2018-Apr-17 10:59N 37°55' W 122°25'2 4.0
2018-Apr-17 10:30N 37°57' W 122°26'5 8.8
2018-Apr-17 10:00N 38°01' W 122°23'5 9.4
2018-Apr-17 09:30N 38°03' W 122°18'5 8.6
2018-Apr-17 08:58N 38°04' W 122°12'3 6.6
2018-Apr-17 08:27N 38°02' W 122°08'2 0.5
2018-Apr-17 04:57N 38°03' W 122°11'3 4.4
2018-Apr-17 04:12N 38°03' W 122°15'0 0.0
2018-Apr-17 03:16N 38°03' W 122°15'2 5.8
2018-Apr-17 02:54N 38°03' W 122°17'4 7.9
2018-Apr-17 02:22N 38°02' W 122°22'3 8.3
2018-Apr-17 02:00N 37°60' W 122°25'4 7.8
2018-Apr-17 01:30N 37°56' W 122°25'0 0.9
2018-Apr-17 01:00N 37°55' W 122°25'1 1.0
2018-Apr-17 00:30N 37°55' W 122°25'2 4.8
2018-Apr-17 00:00N 37°54' W 122°22'0 0.4
2018-Apr-16 23:30N 37°55' W 122°22'0 0.8
2018-Apr-16 23:00N 37°54' W 122°22'2 4.5
2018-Apr-16 22:30N 37°55' W 122°25'1 1.5
2018-Apr-16 22:00N 37°54' W 122°25'2 3.8
2018-Apr-16 21:29N 37°54' W 122°22'0 0.0
2018-Apr-16 20:59N 37°54' W 122°22'0 0.0
2018-Apr-16 20:29N 37°54' W 122°22'0 0.0
2018-Apr-16 19:59N 37°54' W 122°22'0 0.0
2018-Apr-16 19:29N 37°54' W 122°22'0 0.0
2018-Apr-16 18:59N 37°54' W 122°22'0 0.0
2018-Apr-16 18:29N 37°54' W 122°22'0 0.5
2018-Apr-16 18:00N 37°54' W 122°22'0 0.3
2018-Apr-16 17:30N 37°54' W 122°22'0 0.8
2018-Apr-16 17:00N 37°54' W 122°22'0 0.0
2018-Apr-16 16:27N 37°54' W 122°22'0 0.0
2018-Apr-16 16:00N 37°54' W 122°22'0 0.0
2018-Apr-16 15:27N 37°54' W 122°22'0 0.0
2018-Apr-16 15:00N 37°54' W 122°22'0 0.0
2018-Apr-16 14:30N 37°54' W 122°22'0 0.0
2018-Apr-16 14:01N 37°54' W 122°22'2 3.9
2018-Apr-16 13:31N 37°55' W 122°24'0 0.2
2018-Apr-16 12:50N 37°55' W 122°25'0 0.0
2018-Apr-16 12:29N 37°55' W 122°25'0 0.0
2018-Apr-16 11:56N 37°55' W 122°25'0 0.0
2018-Apr-16 11:29N 37°55' W 122°25'0 0.0
2018-Apr-16 10:59N 37°55' W 122°25'0 0.0
2018-Apr-16 10:29N 37°55' W 122°25'2 4.4
2018-Apr-16 10:00N 37°53' W 122°25'5 9.1
2018-Apr-16 09:30N 37°49' W 122°22'0 0.4
2018-Apr-16 09:00N 37°49' W 122°22'1 2.4
2018-Apr-16 08:30N 37°50' W 122°22'4 7.0
2018-Apr-16 08:00N 37°53' W 122°25'2 4.8
2018-Apr-16 07:30N 37°54' W 122°22'0 0.6
2018-Apr-16 07:00N 37°54' W 122°22'0 0.1
2018-Apr-16 06:30N 37°54' W 122°22'0 0.0
2018-Apr-16 06:00N 37°55' W 122°22'0 0.0
2018-Apr-16 05:30N 37°55' W 122°22'0 0.0
2018-Apr-16 05:00N 37°55' W 122°22'0 0.0
2018-Apr-16 04:30N 37°54' W 122°22'0 0.0
2018-Apr-16 04:00N 37°54' W 122°22'0 0.1
2018-Apr-16 03:30N 37°54' W 122°22'0 0.9
2018-Apr-16 03:00N 37°54' W 122°22'0 0.0
2018-Apr-16 02:30N 37°54' W 122°22'0 0.0
2018-Apr-16 01:58N 37°54' W 122°22'0 0.0
2018-Apr-16 01:28N 37°54' W 122°22'0 0.1
2018-Apr-16 00:55N 37°54' W 122°22'0 0.1
2018-Apr-16 00:22N 37°54' W 122°22'0 0.0
2018-Apr-15 23:55N 37°54' W 122°22'0 0.0
2018-Apr-15 23:28N 37°54' W 122°22'0 0.0
2018-Apr-15 22:58N 37°54' W 122°22'0 0.0
2018-Apr-15 22:28N 37°54' W 122°22'0 0.0
2018-Apr-15 21:58N 37°54' W 122°22'0 0.0
2018-Apr-15 21:28N 37°54' W 122°22'0 0.0
2018-Apr-15 20:58N 37°54' W 122°22'0 0.0
2018-Apr-15 20:28N 37°54' W 122°22'0 0.0
2018-Apr-15 19:58N 37°54' W 122°22'0 0.0
2018-Apr-15 19:28N 37°54' W 122°22'0 0.0
2018-Apr-15 18:55N 37°54' W 122°22'0 0.0
2018-Apr-15 18:28N 37°54' W 122°22'0 0.0
2018-Apr-15 17:58N 37°54' W 122°22'0 0.0
2018-Apr-15 17:25N 37°54' W 122°22'0 0.0
2018-Apr-15 16:58N 37°54' W 122°22'0 0.0
2018-Apr-15 16:31N 37°54' W 122°22'0 0.2
2018-Apr-15 16:00N 37°54' W 122°22'1 2.1
2018-Apr-15 15:31N 37°55' W 122°22'2 3.5
2018-Apr-15 15:00N 37°55' W 122°24'1 1.3
2018-Apr-15 14:28N 37°55' W 122°25'0 0.0
2018-Apr-15 13:58N 37°55' W 122°25'0 0.0
2018-Apr-15 13:28N 37°55' W 122°25'0 0.0
2018-Apr-15 12:58N 37°55' W 122°25'0 0.0
2018-Apr-15 12:28N 37°55' W 122°25'0 0.0
2018-Apr-15 11:58N 37°55' W 122°25'0 0.0
2018-Apr-15 11:28N 37°55' W 122°25'0 0.0
2018-Apr-15 10:58N 37°55' W 122°25'0 0.0
2018-Apr-15 10:28N 37°55' W 122°25'0 0.0
2018-Apr-15 09:58N 37°55' W 122°25'0 0.0
2018-Apr-15 09:25N 37°55' W 122°25'0 0.0
2018-Apr-15 08:58N 37°55' W 122°25'0 0.0
2018-Apr-15 08:25N 37°55' W 122°25'0 0.0
2018-Apr-15 07:58N 37°55' W 122°25'0 0.0
2018-Apr-15 07:28N 37°55' W 122°25'0 0.0
2018-Apr-15 06:59N 37°55' W 122°25'0 0.5
2018-Apr-15 06:30N 37°55' W 122°25'0 0.4
2018-Apr-15 06:00N 37°55' W 122°25'0 0.2
2018-Apr-15 05:30N 37°55' W 122°25'0 0.0
2018-Apr-15 05:00N 37°55' W 122°25'0 0.0
2018-Apr-15 04:30N 37°55' W 122°25'0 0.0
2018-Apr-15 03:57N 37°55' W 122°25'0 0.0
2018-Apr-15 03:30N 37°55' W 122°25'0 0.0
2018-Apr-15 02:51N 37°55' W 122°25'0 0.0
2018-Apr-15 02:30N 37°55' W 122°25'0 0.0
2018-Apr-15 02:00N 37°55' W 122°25'0 0.9
2018-Apr-15 01:30N 37°56' W 122°25'0 0.0
2018-Apr-15 01:00N 37°56' W 122°25'0 0.8
2018-Apr-15 00:30N 37°55' W 122°25'3 5.6
2018-Apr-15 00:00N 37°53' W 122°25'3 5.5
2018-Apr-14 23:30N 37°55' W 122°25'0 0.0
2018-Apr-14 22:58N 37°55' W 122°25'0 0.0
2018-Apr-14 22:28N 37°55' W 122°25'0 0.0
2018-Apr-14 21:58N 37°55' W 122°25'0 0.0
2018-Apr-14 21:28N 37°55' W 122°25'2 4.2
2018-Apr-14 20:59N 37°54' W 122°22'0 0.0
2018-Apr-14 20:29N 37°54' W 122°22'0 0.0
2018-Apr-14 19:59N 37°54' W 122°22'0 0.0
2018-Apr-14 19:29N 37°54' W 122°22'0 0.0
2018-Apr-14 18:59N 37°54' W 122°22'0 0.0
2018-Apr-14 18:29N 37°54' W 122°22'0 0.0
2018-Apr-14 18:00N 37°54' W 122°22'4 7.5
2018-Apr-14 17:30N 37°57' W 122°26'510.0
2018-Apr-14 17:00N 38°01' W 122°23'611.6
2018-Apr-14 16:30N 38°04' W 122°16'2 4.8
2018-Apr-14 16:00N 38°03' W 122°13'1 1.9
2018-Apr-14 15:30N 38°04' W 122°14'0 0.1
2018-Apr-14 09:55N 38°03' W 122°15'0 0.0
2018-Apr-14 09:13N 38°03' W 122°15'0 0.2
2018-Apr-14 08:55N 38°03' W 122°15'3 6.5
2018-Apr-14 08:29N 38°03' W 122°11'3 5.7
2018-Apr-14 07:58N 38°02' W 122°08'0 0.3
2018-Apr-14 07:27N 38°02' W 122°08'2 0.6
2018-Apr-14 04:16N 38°02' W 122°10'2 9.4
2018-Apr-14 04:00N 38°04' W 122°13'5 9.1
2018-Apr-14 03:30N 38°03' W 122°19'5 9.0
2018-Apr-14 02:58N 38°00' W 122°24'4 9.6
2018-Apr-14 02:30N 37°56' W 122°26'1 2.4
2018-Apr-14 01:59N 37°55' W 122°25'0 0.0
2018-Apr-14 01:29N 37°55' W 122°25'0 0.0
2018-Apr-14 00:59N 37°55' W 122°25'0 0.0
2018-Apr-14 00:23N 37°55' W 122°25'0 0.0
2018-Apr-13 23:56N 37°55' W 122°25'0 0.0
2018-Apr-13 23:29N 37°55' W 122°25'0 0.0
2018-Apr-13 22:59N 37°55' W 122°25'0 0.0
2018-Apr-13 22:30N 37°55' W 122°25'2 4.0
2018-Apr-13 22:00N 37°54' W 122°22'0 0.0
2018-Apr-13 21:30N 37°54' W 122°22'0 0.0
2018-Apr-13 21:00N 37°54' W 122°22'0 0.0
2018-Apr-13 20:30N 37°54' W 122°22'1 1.6
2018-Apr-13 20:00N 37°55' W 122°22'1 2.3
2018-Apr-13 19:30N 37°54' W 122°23'2 3.7
2018-Apr-13 19:00N 37°55' W 122°25'2 3.4
2018-Apr-13 18:31N 37°54' W 122°23'1 1.2
2018-Apr-13 18:00N 37°54' W 122°22'0 0.0
2018-Apr-13 17:27N 37°54' W 122°22'0 0.0
2018-Apr-13 17:00N 37°54' W 122°22'0 0.0
2018-Apr-13 16:30N 37°54' W 122°22'0 0.0
2018-Apr-13 16:00N 37°54' W 122°22'0 0.0
2018-Apr-13 15:30N 37°54' W 122°22'0 0.0
2018-Apr-13 15:00N 37°54' W 122°22'3 5.4
2018-Apr-13 14:30N 37°55' W 122°25'1 1.2
2018-Apr-13 14:00N 37°56' W 122°25'0 0.1
2018-Apr-13 13:30N 37°56' W 122°25'3 5.1
2018-Apr-13 12:58N 37°58' W 122°26'511.4
2018-Apr-13 12:30N 38°02' W 122°21'612.5
2018-Apr-13 12:01N 38°04' W 122°14'5 1.3
2018-Apr-13 08:02N 38°02' W 122°08'0 1.2
2018-Apr-13 07:59N 38°02' W 122°08'3 2.7
2018-Apr-13 07:03N 38°03' W 122°11'211.7
2018-Apr-13 06:55N 38°04' W 122°12'4 9.4
2018-Apr-13 06:30N 38°03' W 122°17'6 8.1
2018-Apr-13 05:47N 38°01' W 122°24'312.6
2018-Apr-13 05:30N 37°58' W 122°26'4 7.9
2018-Apr-13 04:58N 37°54' W 122°22'0 0.4
2018-Apr-13 04:30N 37°54' W 122°22'1 1.8
2018-Apr-13 04:00N 37°55' W 122°22'1 1.6
2018-Apr-13 03:30N 37°54' W 122°22'0 0.0
2018-Apr-13 02:57N 37°54' W 122°22'0 0.0
2018-Apr-13 02:30N 37°54' W 122°22'0 0.0
2018-Apr-13 01:57N 37°54' W 122°22'0 0.0
2018-Apr-13 01:30N 37°54' W 122°22'2 3.8
2018-Apr-13 00:58N 37°55' W 122°25'0 0.0
2018-Apr-13 00:28N 37°55' W 122°25'0 0.0
2018-Apr-12 23:55N 37°55' W 122°25'0 0.0
2018-Apr-12 23:28N 37°55' W 122°25'0 0.1
2018-Apr-12 22:58N 37°55' W 122°24'0 0.1
2018-Apr-12 22:25N 37°55' W 122°25'0 0.0
2018-Apr-12 21:52N 37°55' W 122°25'0 0.0
2018-Apr-12 21:25N 37°55' W 122°25'0 0.0
2018-Apr-12 20:58N 37°55' W 122°25'0 0.0
2018-Apr-12 20:28N 37°55' W 122°25'0 0.0
2018-Apr-12 19:55N 37°55' W 122°25'0 0.0
2018-Apr-12 19:19N 37°55' W 122°25'0 0.6
2018-Apr-12 19:00N 37°55' W 122°25'0 0.6
2018-Apr-12 18:30N 37°55' W 122°25'0 0.2
2018-Apr-12 17:48N 37°55' W 122°25'0 0.0
2018-Apr-12 17:21N 37°55' W 122°25'0 0.3
2018-Apr-12 17:00N 37°55' W 122°25'0 0.9
2018-Apr-12 16:30N 37°56' W 122°25'2 3.1
2018-Apr-12 16:00N 37°54' W 122°25'1 2.5
2018-Apr-12 15:30N 37°55' W 122°25'0 0.1
2018-Apr-12 15:00N 37°55' W 122°25'2 3.6
2018-Apr-12 14:30N 37°53' W 122°25'4 8.2
2018-Apr-12 14:00N 37°50' W 122°24'4 7.1
2018-Apr-12 13:30N 37°46' W 122°22'3 5.8
2018-Apr-12 13:00N 37°44' W 122°21'0 0.2
2018-Apr-12 12:30N 37°44' W 122°21'2 4.9
2018-Apr-12 12:00N 37°46' W 122°21'3 6.5
2018-Apr-12 11:30N 37°49' W 122°22'3 6.0
2018-Apr-12 11:00N 37°52' W 122°24'510.8
2018-Apr-12 10:30N 37°57' W 122°26'510.2
2018-Apr-12 10:00N 38°01' W 122°23'510.0
2018-Apr-12 09:30N 38°03' W 122°17'5 9.7
2018-Apr-12 09:00N 38°03' W 122°11'2 0.8
2018-Apr-12 06:03N 38°04' W 122°14'110.9
2018-Apr-12 05:56N 38°04' W 122°15'1 1.3
2018-Apr-12 05:30N 38°04' W 122°15'0 0.1
2018-Apr-12 04:58N 38°03' W 122°15'0 0.0
2018-Apr-12 04:30N 38°03' W 122°15'0 0.0
2018-Apr-12 04:00N 38°03' W 122°15'0 0.0
2018-Apr-12 03:30N 38°03' W 122°15'2 0.6
2018-Apr-12 00:27N 38°04' W 122°17'6 8.0
2018-Apr-11 23:44N 38°01' W 122°23'2 7.9
2018-Apr-11 23:27N 37°59' W 122°25'3 7.8
2018-Apr-11 23:00N 37°56' W 122°27'4 7.4
2018-Apr-11 22:30N 37°53' W 122°25'4 8.7
2018-Apr-11 22:00N 37°49' W 122°23'4 8.5
2018-Apr-11 21:30N 37°45' W 122°20'0 0.4
2018-Apr-11 21:00N 37°45' W 122°20'0 0.3
2018-Apr-11 20:30N 37°45' W 122°20'3 6.8
2018-Apr-11 20:00N 37°48' W 122°21'1 1.9
2018-Apr-11 19:27N 37°49' W 122°22'0 0.0
2018-Apr-11 19:00N 37°49' W 122°22'0 0.0
2018-Apr-11 18:27N 37°49' W 122°22'0 0.0
2018-Apr-11 17:57N 37°49' W 122°22'0 0.0
2018-Apr-11 17:27N 37°49' W 122°22'0 0.0
2018-Apr-11 17:00N 37°49' W 122°22'0 0.1
2018-Apr-11 16:30N 37°49' W 122°22'0 0.1
2018-Apr-11 15:57N 37°49' W 122°22'0 0.0
2018-Apr-11 15:27N 37°49' W 122°22'0 0.0
2018-Apr-11 15:00N 37°49' W 122°22'0 0.1
2018-Apr-11 14:30N 37°49' W 122°22'0 0.1
2018-Apr-11 14:00N 37°49' W 122°22'0 0.0
2018-Apr-11 13:30N 37°49' W 122°22'0 0.0
2018-Apr-11 13:00N 37°49' W 122°22'0 0.0
2018-Apr-11 12:30N 37°49' W 122°22'0 0.0
2018-Apr-11 12:00N 37°49' W 122°22'0 0.0
2018-Apr-11 11:30N 37°49' W 122°22'0 0.1
2018-Apr-11 11:00N 37°49' W 122°22'0 0.2
2018-Apr-11 10:30N 37°49' W 122°22'2 4.1
2018-Apr-11 10:00N 37°51' W 122°23'4 7.7
2018-Apr-11 09:30N 37°54' W 122°25'2 4.8
2018-Apr-11 09:00N 37°55' W 122°22'0 0.7
2018-Apr-11 08:29N 37°55' W 122°22'  

Dump ship's entire track history